sensor_id;sensor_type;location;lat;lon;timestamp;pressure;altitude;pressure_sealevel;temperature;humidity
34482;BME280;20720;48.886;9.388;2023-02-13T00:01:26;100338.13;;;2.39;100.00
34482;BME280;20720;48.886;9.388;2023-02-13T00:03:51;100338.59;;;2.45;100.00
34482;BME280;20720;48.886;9.388;2023-02-13T00:06:17;100343.03;;;2.43;100.00
34482;BME280;20720;48.886;9.388;2023-02-13T00:08:42;100340.47;;;2.29;100.00
34482;BME280;20720;48.886;9.388;2023-02-13T00:11:07;100335.13;;;2.32;100.00
34482;BME280;20720;48.886;9.388;2023-02-13T00:13:34;100330.50;;;1.82;100.00
34482;BME280;20720;48.886;9.388;2023-02-13T00:16:01;100319.16;;;2.12;100.00
34482;BME280;20720;48.886;9.388;2023-02-13T00:18:27;100325.16;;;2.39;100.00
34482;BME280;20720;48.886;9.388;2023-02-13T00:20:58;100338.09;;;2.26;100.00
34482;BME280;20720;48.886;9.388;2023-02-13T00:23:23;100327.19;;;2.21;100.00
34482;BME280;20720;48.886;9.388;2023-02-13T00:25:48;100333.63;;;2.28;100.00
34482;BME280;20720;48.886;9.388;2023-02-13T00:28:14;100335.28;;;2.29;100.00
34482;BME280;20720;48.886;9.388;2023-02-13T00:30:39;100327.94;;;2.23;100.00
34482;BME280;20720;48.886;9.388;2023-02-13T00:33:04;100319.97;;;2.39;100.00
34482;BME280;20720;48.886;9.388;2023-02-13T00:35:29;100326.06;;;2.25;100.00
34482;BME280;20720;48.886;9.388;2023-02-13T00:37:56;100334.06;;;2.08;100.00
34482;BME280;20720;48.886;9.388;2023-02-13T00:40:21;100329.69;;;2.09;100.00
34482;BME280;20720;48.886;9.388;2023-02-13T00:42:46;100337.03;;;2.02;100.00
34482;BME280;20720;48.886;9.388;2023-02-13T00:45:12;100334.47;;;2.02;100.00
34482;BME280;20720;48.886;9.388;2023-02-13T00:47:37;100334.28;;;1.91;100.00
34482;BME280;20720;48.886;9.388;2023-02-13T00:50:03;100326.63;;;1.75;100.00
34482;BME280;20720;48.886;9.388;2023-02-13T00:52:28;100323.09;;;1.90;100.00
34482;BME280;20720;48.886;9.388;2023-02-13T00:54:54;100321.25;;;1.92;100.00
34482;BME280;20720;48.886;9.388;2023-02-13T00:57:19;100317.53;;;1.97;100.00
34482;BME280;20720;48.886;9.388;2023-02-13T00:59:44;100312.78;;;2.03;100.00
34482;BME280;20720;48.886;9.388;2023-02-13T01:02:09;100320.16;;;2.23;100.00
34482;BME280;20720;48.886;9.388;2023-02-13T01:04:35;100321.66;;;2.13;100.00
34482;BME280;20720;48.886;9.388;2023-02-13T01:07:00;100322.72;;;1.97;100.00
34482;BME280;20720;48.886;9.388;2023-02-13T01:09:25;100325.56;;;1.92;100.00
34482;BME280;20720;48.886;9.388;2023-02-13T01:11:51;100322.44;;;1.87;100.00
34482;BME280;20720;48.886;9.388;2023-02-13T01:14:16;100320.88;;;1.84;100.00
34482;BME280;20720;48.886;9.388;2023-02-13T01:16:41;100324.13;;;1.46;100.00
34482;BME280;20720;48.886;9.388;2023-02-13T01:19:06;100311.13;;;1.47;100.00
34482;BME280;20720;48.886;9.388;2023-02-13T01:21:32;100316.53;;;1.71;100.00
34482;BME280;20720;48.886;9.388;2023-02-13T01:23:57;100315.25;;;1.64;100.00
34482;BME280;20720;48.886;9.388;2023-02-13T01:26:23;100315.16;;;1.79;100.00
34482;BME280;20720;48.886;9.388;2023-02-13T01:28:53;100322.56;;;1.71;100.00
34482;BME280;20720;48.886;9.388;2023-02-13T01:31:19;100323.78;;;1.66;100.00
34482;BME280;20720;48.886;9.388;2023-02-13T01:33:45;100316.75;;;1.68;100.00
34482;BME280;20720;48.886;9.388;2023-02-13T01:36:11;100320.81;;;1.58;100.00
34482;BME280;20720;48.886;9.388;2023-02-13T01:38:38;100328.03;;;1.53;100.00
34482;BME280;20720;48.886;9.388;2023-02-13T01:41:03;100326.63;;;1.61;100.00
34482;BME280;20720;48.886;9.388;2023-02-13T01:46:13;100325.75;;;1.05;100.00
34482;BME280;20720;48.886;9.388;2023-02-13T01:48:40;100317.47;;;1.28;100.00
34482;BME280;20720;48.886;9.388;2023-02-13T01:51:18;100320.63;;;1.61;100.00
34482;BME280;20720;48.886;9.388;2023-02-13T01:53:48;100319.53;;;1.51;100.00
34482;BME280;20720;48.886;9.388;2023-02-13T01:56:24;100323.13;;;1.48;100.00
34482;BME280;20720;48.886;9.388;2023-02-13T01:58:53;100328.75;;;1.41;100.00
34482;BME280;20720;48.886;9.388;2023-02-13T02:01:20;100330.59;;;1.39;100.00
34482;BME280;20720;48.886;9.388;2023-02-13T02:03:59;100312.47;;;1.39;100.00
34482;BME280;20720;48.886;9.388;2023-02-13T02:06:32;100311.56;;;1.26;100.00
34482;BME280;20720;48.886;9.388;2023-02-13T02:09:01;100313.78;;;1.46;100.00
34482;BME280;20720;48.886;9.388;2023-02-13T02:11:38;100319.53;;;1.51;100.00
34482;BME280;20720;48.886;9.388;2023-02-13T02:14:06;100323.22;;;1.47;100.00
34482;BME280;20720;48.886;9.388;2023-02-13T02:16:32;100321.16;;;1.24;100.00
34482;BME280;20720;48.886;9.388;2023-02-13T02:19:00;100310.84;;;1.38;100.00
34482;BME280;20720;48.886;9.388;2023-02-13T02:21:45;100320.81;;;1.30;100.00
34482;BME280;20720;48.886;9.388;2023-02-13T02:24:44;100317.97;;;1.34;100.00
34482;BME280;20720;48.886;9.388;2023-02-13T02:32:47;100310.06;;;1.64;100.00
34482;BME280;20720;48.886;9.388;2023-02-13T02:35:28;100310.97;;;1.63;100.00
34482;BME280;20720;48.886;9.388;2023-02-13T02:38:04;100301.78;;;1.59;100.00
34482;BME280;20720;48.886;9.388;2023-02-13T02:46:12;100300.81;;;1.46;100.00
34482;BME280;20720;48.886;9.388;2023-02-13T02:48:48;100315.06;;;1.39;100.00
34482;BME280;20720;48.886;9.388;2023-02-13T02:51:58;100300.47;;;1.38;100.00
34482;BME280;20720;48.886;9.388;2023-02-13T02:54:33;100305.16;;;1.73;100.00
34482;BME280;20720;48.886;9.388;2023-02-13T02:57:27;100310.00;;;1.51;100.00
34482;BME280;20720;48.886;9.388;2023-02-13T03:00:16;100305.59;;;1.80;100.00
34482;BME280;20720;48.886;9.388;2023-02-13T03:03:04;100311.34;;;1.71;100.00
34482;BME280;20720;48.886;9.388;2023-02-13T03:05:52;100316.56;;;1.57;100.00
34482;BME280;20720;48.886;9.388;2023-02-13T03:08:43;100319.41;;;1.52;100.00
34482;BME280;20720;48.886;9.388;2023-02-13T03:11:28;100314.16;;;1.26;100.00
34482;BME280;20720;48.886;9.388;2023-02-13T03:14:16;100306.00;;;1.46;100.00
34482;BME280;20720;48.886;9.388;2023-02-13T03:16:43;100312.50;;;1.25;100.00
34482;BME280;20720;48.886;9.388;2023-02-13T03:19:37;100317.03;;;1.49;100.00
34482;BME280;20720;48.886;9.388;2023-02-13T03:25:31;100328.03;;;1.53;100.00
34482;BME280;20720;48.886;9.388;2023-02-13T03:28:21;100325.25;;;1.28;100.00
34482;BME280;20720;48.886;9.388;2023-02-13T03:31:37;100326.69;;;1.18;100.00
34482;BME280;20720;48.886;9.388;2023-02-13T03:34:12;100329.75;;;1.10;100.00
34482;BME280;20720;48.886;9.388;2023-02-13T03:36:54;100332.81;;;1.17;100.00
34482;BME280;20720;48.886;9.388;2023-02-13T03:40:00;100334.47;;;1.04;100.00
34482;BME280;20720;48.886;9.388;2023-02-13T03:42:38;100325.22;;;1.00;100.00
34482;BME280;20720;48.886;9.388;2023-02-13T03:45:11;100330.59;;;1.11;100.00
34482;BME280;20720;48.886;9.388;2023-02-13T03:47:56;100343.06;;;1.18;100.00
34482;BME280;20720;48.886;9.388;2023-02-13T03:50:24;100345.72;;;1.03;100.00
34482;BME280;20720;48.886;9.388;2023-02-13T03:53:01;100340.94;;;1.11;100.00
34482;BME280;20720;48.886;9.388;2023-02-13T03:55:34;100343.78;;;1.06;100.00
34482;BME280;20720;48.886;9.388;2023-02-13T03:58:27;100355.91;;;1.06;100.00
34482;BME280;20720;48.886;9.388;2023-02-13T04:01:13;100352.22;;;1.10;100.00
34482;BME280;20720;48.886;9.388;2023-02-13T04:06:33;100344.75;;;0.89;100.00
34482;BME280;20720;48.886;9.388;2023-02-13T04:09:00;100349.84;;;1.21;100.00
34482;BME280;20720;48.886;9.388;2023-02-13T04:11:39;100356.22;;;1.29;100.00
34482;BME280;20720;48.886;9.388;2023-02-13T04:14:10;100352.41;;;1.21;100.00
34482;BME280;20720;48.886;9.388;2023-02-13T04:16:42;100364.03;;;1.14;100.00
34482;BME280;20720;48.886;9.388;2023-02-13T04:19:09;100360.19;;;0.61;100.00
34482;BME280;20720;48.886;9.388;2023-02-13T04:21:36;100366.06;;;1.09;100.00
34482;BME280;20720;48.886;9.388;2023-02-13T04:24:02;100361.44;;;1.00;100.00
34482;BME280;20720;48.886;9.388;2023-02-13T04:26:33;100365.66;;;0.86;100.00
34482;BME280;20720;48.886;9.388;2023-02-13T04:28:59;100363.81;;;1.03;100.00
34482;BME280;20720;48.886;9.388;2023-02-13T04:31:24;100367.91;;;1.07;100.00
34482;BME280;20720;48.886;9.388;2023-02-13T04:33:50;100357.03;;;0.86;100.00
34482;BME280;20720;48.886;9.388;2023-02-13T04:36:15;100373.28;;;1.04;100.00
34482;BME280;20720;48.886;9.388;2023-02-13T04:38:41;100366.75;;;0.82;100.00
34482;BME280;20720;48.886;9.388;2023-02-13T04:41:07;100365.16;;;0.35;100.00
34482;BME280;20720;48.886;9.388;2023-02-13T04:43:32;100364.94;;;0.69;100.00
34482;BME280;20720;48.886;9.388;2023-02-13T04:45:57;100358.34;;;0.93;100.00
34482;BME280;20720;48.886;9.388;2023-02-13T04:48:22;100359.88;;;0.81;100.00
34482;BME280;20720;48.886;9.388;2023-02-13T04:50:48;100366.75;;;0.82;100.00
34482;BME280;20720;48.886;9.388;2023-02-13T04:53:13;100367.63;;;0.81;100.00
34482;BME280;20720;48.886;9.388;2023-02-13T04:55:38;100369.09;;;0.71;100.00
34482;BME280;20720;48.886;9.388;2023-02-13T04:58:03;100360.75;;;0.66;100.00
34482;BME280;20720;48.886;9.388;2023-02-13T05:00:29;100366.44;;;0.57;100.00
34482;BME280;20720;48.886;9.388;2023-02-13T05:03:00;100371.34;;;0.77;100.00
34482;BME280;20720;48.886;9.388;2023-02-13T05:05:28;100362.25;;;0.70;100.00
34482;BME280;20720;48.886;9.388;2023-02-13T05:07:53;100367.09;;;0.76;100.00
34482;BME280;20720;48.886;9.388;2023-02-13T05:10:18;100372.09;;;0.79;100.00
34482;BME280;20720;48.886;9.388;2023-02-13T05:12:43;100371.22;;;0.94;100.00
34482;BME280;20720;48.886;9.388;2023-02-13T05:15:09;100372.69;;;0.69;100.00
34482;BME280;20720;48.886;9.388;2023-02-13T05:17:34;100374.50;;;0.82;100.00
34482;BME280;20720;48.886;9.388;2023-02-13T05:19:59;100358.16;;;0.66;100.00
34482;BME280;20720;48.886;9.388;2023-02-13T05:22:24;100372.78;;;0.67;100.00
34482;BME280;20720;48.886;9.388;2023-02-13T05:25:08;100377.09;;;0.82;100.00
34482;BME280;20720;48.886;9.388;2023-02-13T05:27:33;100366.84;;;0.81;100.00
34482;BME280;20720;48.886;9.388;2023-02-13T05:29:59;100370.94;;;0.69;100.00
34482;BME280;20720;48.886;9.388;2023-02-13T05:32:24;100372.78;;;0.67;100.00
34482;BME280;20720;48.886;9.388;2023-02-13T05:34:49;100374.00;;;0.76;100.00
34482;BME280;20720;48.886;9.388;2023-02-13T05:37:15;100366.75;;;0.82;100.00
34482;BME280;20720;48.886;9.388;2023-02-13T05:39:40;100373.06;;;0.92;100.00
34482;BME280;20720;48.886;9.388;2023-02-13T05:42:05;100370.94;;;0.99;100.00
34482;BME280;20720;48.886;9.388;2023-02-13T05:44:31;100374.19;;;1.03;100.00
34482;BME280;20720;48.886;9.388;2023-02-13T05:46:56;100369.88;;;0.87;100.00
34482;BME280;20720;48.886;9.388;2023-02-13T05:49:22;100362.84;;;0.75;100.00
34482;BME280;20720;48.886;9.388;2023-02-13T05:51:48;100360.69;;;0.98;100.00
34482;BME280;20720;48.886;9.388;2023-02-13T05:54:13;100363.81;;;1.03;100.00
34482;BME280;20720;48.886;9.388;2023-02-13T05:56:39;100367.28;;;0.87;100.00
34482;BME280;20720;48.886;9.388;2023-02-13T05:59:05;100365.56;;;0.88;100.00
34482;BME280;20720;48.886;9.388;2023-02-13T06:01:30;100363.81;;;0.88;100.00
34482;BME280;20720;48.886;9.388;2023-02-13T06:03:55;100366.56;;;0.85;100.00
34482;BME280;20720;48.886;9.388;2023-02-13T06:06:21;100361.59;;;0.67;100.00
34482;BME280;20720;48.886;9.388;2023-02-13T06:08:47;100362.84;;;0.75;100.00
34482;BME280;20720;48.886;9.388;2023-02-13T06:11:12;100371.84;;;0.68;100.00
34482;BME280;20720;48.886;9.388;2023-02-13T06:13:37;100365.94;;;0.66;100.00
34482;BME280;20720;48.886;9.388;2023-02-13T06:16:06;100371.16;;;0.80;100.00
34482;BME280;20720;48.886;9.388;2023-02-13T06:18:32;100376.59;;;0.76;100.00
34482;BME280;20720;48.886;9.388;2023-02-13T06:20:57;100376.97;;;0.70;100.00
34482;BME280;20720;48.886;9.388;2023-02-13T06:23:23;100380.88;;;0.61;100.00
34482;BME280;20720;48.886;9.388;2023-02-13T06:25:48;100379.16;;;0.46;100.00
34482;BME280;20720;48.886;9.388;2023-02-13T06:28:14;100381.41;;;0.52;100.00
34482;BME280;20720;48.886;9.388;2023-02-13T06:30:39;100384.47;;;0.59;100.00
34482;BME280;20720;48.886;9.388;2023-02-13T06:33:04;100380.13;;;0.59;100.00
34482;BME280;20720;48.886;9.388;2023-02-13T06:35:30;100374.81;;;0.62;100.00
34482;BME280;20720;48.886;9.388;2023-02-13T06:37:55;100386.28;;;0.57;100.00
34482;BME280;20720;48.886;9.388;2023-02-13T06:40:20;100383.69;;;0.72;100.00
34482;BME280;20720;48.886;9.388;2023-02-13T06:42:45;100383.97;;;0.68;100.00
34482;BME280;20720;48.886;9.388;2023-02-13T06:45:11;100385.28;;;0.59;100.00
34482;BME280;20720;48.886;9.388;2023-02-13T06:47:44;100393.81;;;0.61;100.00
34482;BME280;20720;48.886;9.388;2023-02-13T06:50:11;100387.72;;;0.62;100.00
34482;BME280;20720;48.886;9.388;2023-02-13T06:52:37;100382.78;;;0.73;100.00
34482;BME280;20720;48.886;9.388;2023-02-13T06:55:03;100383.59;;;0.74;100.00
34482;BME280;20720;48.886;9.388;2023-02-13T06:57:29;100388.41;;;0.95;100.00
34482;BME280;20720;48.886;9.388;2023-02-13T07:00:00;100383.72;;;1.02;100.00
34482;BME280;20720;48.886;9.388;2023-02-13T07:02:29;100387.81;;;1.20;100.00
34482;BME280;20720;48.886;9.388;2023-02-13T07:04:54;100387.91;;;1.33;100.00
34482;BME280;20720;48.886;9.388;2023-02-13T07:07:19;100397.16;;;1.23;100.00
34482;BME280;20720;48.886;9.388;2023-02-13T07:09:44;100396.97;;;1.26;100.00
34482;BME280;20720;48.886;9.388;2023-02-13T07:12:10;100391.28;;;1.49;100.00
34482;BME280;20720;48.886;9.388;2023-02-13T07:14:35;100392.59;;;1.98;100.00
34482;BME280;20720;48.886;9.388;2023-02-13T07:17:00;100396.06;;;2.25;100.00
34482;BME280;20720;48.886;9.388;2023-02-13T07:19:25;100392.75;;;2.23;100.00
34482;BME280;20720;48.886;9.388;2023-02-13T07:21:51;100387.72;;;2.20;100.00
34482;BME280;20720;48.886;9.388;2023-02-13T07:24:16;100400.19;;;2.42;100.00
34482;BME280;20720;48.886;9.388;2023-02-13T07:26:41;100402.34;;;2.88;100.00
34482;BME280;20720;48.886;9.388;2023-02-13T07:29:07;100389.97;;;3.44;100.00
34482;BME280;20720;48.886;9.388;2023-02-13T07:31:35;100388.91;;;3.97;100.00
34482;BME280;20720;48.886;9.388;2023-02-13T07:34:00;100395.59;;;4.60;100.00
34482;BME280;20720;48.886;9.388;2023-02-13T07:36:26;100392.72;;;4.76;100.00
34482;BME280;20720;48.886;9.388;2023-02-13T07:38:51;100386.91;;;5.53;100.00
34482;BME280;20720;48.886;9.388;2023-02-13T07:41:17;100391.47;;;5.95;100.00
34482;BME280;20720;48.886;9.388;2023-02-13T07:43:42;100401.31;;;6.25;100.00
34482;BME280;20720;48.886;9.388;2023-02-13T07:46:08;100397.19;;;6.65;100.00
34482;BME280;20720;48.886;9.388;2023-02-13T07:48:33;100407.50;;;4.99;100.00
34482;BME280;20720;48.886;9.388;2023-02-13T07:51:00;100411.38;;;5.28;100.00
34482;BME280;20720;48.886;9.388;2023-02-13T07:53:26;100408.25;;;5.47;100.00
34482;BME280;20720;48.886;9.388;2023-02-13T07:55:51;100404.00;;;4.88;100.00
34482;BME280;20720;48.886;9.388;2023-02-13T07:58:16;100408.09;;;4.79;100.00
34482;BME280;20720;48.886;9.388;2023-02-13T08:00:41;100410.59;;;6.60;100.00
34482;BME280;20720;48.886;9.388;2023-02-13T08:03:08;100407.09;;;6.50;100.00
34482;BME280;20720;48.886;9.388;2023-02-13T08:05:33;100406.75;;;6.87;100.00
34482;BME280;20720;48.886;9.388;2023-02-13T08:07:59;100404.41;;;7.25;100.00
34482;BME280;20720;48.886;9.388;2023-02-13T08:10:24;100402.41;;;7.49;98.99
34482;BME280;20720;48.886;9.388;2023-02-13T08:13:08;100414.00;;;8.37;94.55
34482;BME280;20720;48.886;9.388;2023-02-13T08:15:35;100420.38;;;8.63;92.02
34482;BME280;20720;48.886;9.388;2023-02-13T08:18:01;100419.75;;;8.99;90.27
34482;BME280;20720;48.886;9.388;2023-02-13T08:20:26;100420.59;;;9.09;89.68
34482;BME280;20720;48.886;9.388;2023-02-13T08:22:51;100423.06;;;9.30;89.54
34482;BME280;20720;48.886;9.388;2023-02-13T08:25:17;100424.28;;;9.35;90.08
34482;BME280;20720;48.886;9.388;2023-02-13T08:27:44;100412.63;;;9.86;86.83
34482;BME280;20720;48.886;9.388;2023-02-13T08:30:09;100409.19;;;9.66;87.99
34482;BME280;20720;48.886;9.388;2023-02-13T08:32:35;100409.94;;;8.92;93.53
34482;BME280;20720;48.886;9.388;2023-02-13T08:35:00;100414.06;;;9.98;88.66
34482;BME280;20720;48.886;9.388;2023-02-13T08:37:26;100406.59;;;10.67;86.05
34482;BME280;20720;48.886;9.388;2023-02-13T08:39:51;100406.34;;;11.74;79.38
34482;BME280;20720;48.886;9.388;2023-02-13T08:42:16;100405.06;;;12.03;78.48
34482;BME280;20720;48.886;9.388;2023-02-13T08:44:42;100412.59;;;11.12;84.75
34482;BME280;20720;48.886;9.388;2023-02-13T08:47:08;100412.16;;;11.16;81.21
34482;BME280;20720;48.886;9.388;2023-02-13T08:49:33;100403.72;;;11.30;81.94
34482;BME280;20720;48.886;9.388;2023-02-13T08:51:59;100407.66;;;11.09;81.61
34482;BME280;20720;48.886;9.388;2023-02-13T08:54:25;100399.66;;;10.48;84.99
34482;BME280;20720;48.886;9.388;2023-02-13T08:56:52;100410.56;;;11.84;81.04
34482;BME280;20720;48.886;9.388;2023-02-13T08:59:17;100400.19;;;12.16;78.34
34482;BME280;20720;48.886;9.388;2023-02-13T09:01:42;100404.19;;;12.28;74.97
34482;BME280;20720;48.886;9.388;2023-02-13T09:04:08;100411.41;;;12.26;76.83
34482;BME280;20720;48.886;9.388;2023-02-13T09:06:33;100404.06;;;12.38;76.39
34482;BME280;20720;48.886;9.388;2023-02-13T09:08:58;100400.38;;;12.23;79.67
34482;BME280;20720;48.886;9.388;2023-02-13T09:11:23;100403.59;;;11.58;82.75
34482;BME280;20720;48.886;9.388;2023-02-13T09:13:52;100408.28;;;10.58;84.89
34482;BME280;20720;48.886;9.388;2023-02-13T09:16:18;100402.44;;;12.03;83.68
34482;BME280;20720;48.886;9.388;2023-02-13T09:18:46;100409.09;;;10.04;92.27
34482;BME280;20720;48.886;9.388;2023-02-13T09:21:12;100403.22;;;11.70;83.29
34482;BME280;20720;48.886;9.388;2023-02-13T09:23:39;100406.91;;;12.53;75.84
34482;BME280;20720;48.886;9.388;2023-02-13T09:26:07;100409.28;;;11.88;79.77
34482;BME280;20720;48.886;9.388;2023-02-13T09:28:34;100406.81;;;12.78;76.07
34482;BME280;20720;48.886;9.388;2023-02-13T09:31:04;100406.88;;;13.35;71.36
34482;BME280;20720;48.886;9.388;2023-02-13T09:33:29;100406.69;;;13.68;70.34
34482;BME280;20720;48.886;9.388;2023-02-13T09:35:54;100417.06;;;10.94;82.12
34482;BME280;20720;48.886;9.388;2023-02-13T09:38:20;100408.31;;;12.31;80.96
34482;BME280;20720;48.886;9.388;2023-02-13T09:40:58;100417.91;;;13.78;70.77
34482;BME280;20720;48.886;9.388;2023-02-13T09:43:30;100411.47;;;13.73;69.57
34482;BME280;20720;48.886;9.388;2023-02-13T09:46:03;100412.00;;;13.52;70.43
34482;BME280;20720;48.886;9.388;2023-02-13T09:48:35;100406.22;;;13.41;70.24
34482;BME280;20720;48.886;9.388;2023-02-13T09:51:02;100413.56;;;14.01;69.36
34482;BME280;20720;48.886;9.388;2023-02-13T09:53:28;100415.28;;;14.25;68.78
34482;BME280;20720;48.886;9.388;2023-02-13T09:58:42;100404.06;;;14.70;65.76
34482;BME280;20720;48.886;9.388;2023-02-13T10:01:18;100407.22;;;13.15;72.21
34482;BME280;20720;48.886;9.388;2023-02-13T10:04:05;100408.50;;;13.76;68.74
34482;BME280;20720;48.886;9.388;2023-02-13T10:06:41;100407.13;;;14.81;67.10
34482;BME280;20720;48.886;9.388;2023-02-13T10:09:39;100400.63;;;15.29;63.03
34482;BME280;20720;48.886;9.388;2023-02-13T10:17:17;100399.00;;;14.83;65.40
34482;BME280;20720;48.886;9.388;2023-02-13T10:19:52;100409.84;;;12.50;76.03
34482;BME280;20720;48.886;9.388;2023-02-13T10:22:24;100401.84;;;14.04;69.98
34482;BME280;20720;48.886;9.388;2023-02-13T10:24:58;100403.78;;;14.10;68.90
34482;BME280;20720;48.886;9.388;2023-02-13T10:27:31;100407.81;;;11.94;74.29
34482;BME280;20720;48.886;9.388;2023-02-13T10:30:06;100401.00;;;14.03;71.75
34482;BME280;20720;48.886;9.388;2023-02-13T10:35:37;100399.13;;;14.28;68.76
34482;BME280;20720;48.886;9.388;2023-02-13T10:38:12;100396.63;;;14.65;65.38
34482;BME280;20720;48.886;9.388;2023-02-13T10:40:47;100398.16;;;14.60;65.34
34482;BME280;20720;48.886;9.388;2023-02-13T10:43:18;100383.97;;;15.06;64.20
34482;BME280;20720;48.886;9.388;2023-02-13T10:46:10;100385.56;;;15.30;62.98
34482;BME280;20720;48.886;9.388;2023-02-13T10:51:24;100371.66;;;15.13;61.71
34482;BME280;20720;48.886;9.388;2023-02-13T10:57:12;100371.03;;;16.36;59.13
34482;BME280;20720;48.886;9.388;2023-02-13T11:02:27;100365.88;;;14.26;63.02
34482;BME280;20720;48.886;9.388;2023-02-13T11:05:17;100358.19;;;14.55;64.32
34482;BME280;20720;48.886;9.388;2023-02-13T11:07:44;100357.25;;;15.67;60.87
34482;BME280;20720;48.886;9.388;2023-02-13T11:10:22;100349.84;;;15.48;61.19
34482;BME280;20720;48.886;9.388;2023-02-13T11:12:48;100345.47;;;16.14;58.78
34482;BME280;20720;48.886;9.388;2023-02-13T11:15:31;100349.13;;;15.17;62.75
34482;BME280;20720;48.886;9.388;2023-02-13T11:17:59;100346.69;;;15.96;60.78
34482;BME280;20720;48.886;9.388;2023-02-13T11:20:36;100351.16;;;15.96;60.34
34482;BME280;20720;48.886;9.388;2023-02-13T11:25:58;100345.38;;;15.63;60.63
34482;BME280;20720;48.886;9.388;2023-02-13T11:28:24;100345.88;;;15.81;59.91
34482;BME280;20720;48.886;9.388;2023-02-13T11:30:51;100349.78;;;16.00;60.18
34482;BME280;20720;48.886;9.388;2023-02-13T11:35:46;100349.91;;;16.57;58.33
34482;BME280;20720;48.886;9.388;2023-02-13T11:40:41;100357.47;;;17.72;55.08
34482;BME280;20720;48.886;9.388;2023-02-13T11:43:17;100344.25;;;16.31;58.95
34482;BME280;20720;48.886;9.388;2023-02-13T11:45:43;100339.75;;;17.03;56.43
34482;BME280;20720;48.886;9.388;2023-02-13T11:48:19;100340.31;;;18.15;53.96
34482;BME280;20720;48.886;9.388;2023-02-13T11:50:50;100335.66;;;18.30;53.60
34482;BME280;20720;48.886;9.388;2023-02-13T11:53:21;100344.97;;;16.96;55.93
34482;BME280;20720;48.886;9.388;2023-02-13T11:56:09;100344.84;;;17.25;55.98
34482;BME280;20720;48.886;9.388;2023-02-13T11:58:35;100340.16;;;16.14;59.77
34482;BME280;20720;48.886;9.388;2023-02-13T12:03:42;100337.91;;;17.03;56.47
34482;BME280;20720;48.886;9.388;2023-02-13T12:08:35;100334.00;;;18.23;53.96
34482;BME280;20720;48.886;9.388;2023-02-13T12:11:04;100329.41;;;17.42;54.50
34482;BME280;20720;48.886;9.388;2023-02-13T12:13:34;100331.78;;;17.51;54.77
34482;BME280;20720;48.886;9.388;2023-02-13T12:16:09;100331.34;;;17.82;54.39
34482;BME280;20720;48.886;9.388;2023-02-13T12:18:44;100335.38;;;18.12;52.93
34482;BME280;20720;48.886;9.388;2023-02-13T12:21:31;100338.66;;;16.97;55.79
34482;BME280;20720;48.886;9.388;2023-02-13T12:24:10;100337.81;;;17.18;55.98
34482;BME280;20720;48.886;9.388;2023-02-13T12:26:43;100325.44;;;17.04;55.89
34482;BME280;20720;48.886;9.388;2023-02-13T12:37:17;100320.66;;;18.70;52.86
34482;BME280;20720;48.886;9.388;2023-02-13T12:48:47;100304.69;;;19.42;50.81
34482;BME280;20720;48.886;9.388;2023-02-13T12:51:32;100313.44;;;16.86;54.79
34482;BME280;20720;48.886;9.388;2023-02-13T12:54:27;100305.75;;;18.22;53.73
34482;BME280;20720;48.886;9.388;2023-02-13T13:07:59;100290.25;;;19.89;49.87
34482;BME280;20720;48.886;9.388;2023-02-13T13:16:05;100291.78;;;18.07;51.20
34482;BME280;20720;48.886;9.388;2023-02-13T13:18:49;100289.47;;;18.51;52.06
34482;BME280;20720;48.886;9.388;2023-02-13T13:21:19;100293.44;;;19.20;50.57
34482;BME280;20720;48.886;9.388;2023-02-13T13:24:06;100281.13;;;20.09;48.24
34482;BME280;20720;48.886;9.388;2023-02-13T13:26:41;100285.91;;;20.45;48.13
34482;BME280;20720;48.886;9.388;2023-02-13T13:29:14;100282.56;;;19.54;49.63
34482;BME280;20720;48.886;9.388;2023-02-13T13:31:46;100280.59;;;20.38;48.12
34482;BME280;20720;48.886;9.388;2023-02-13T13:34:19;100282.38;;;20.07;48.41
34482;BME280;20720;48.886;9.388;2023-02-13T13:36:52;100276.78;;;18.46;51.33
34482;BME280;20720;48.886;9.388;2023-02-13T13:42:26;100280.50;;;19.24;50.86
34482;BME280;20720;48.886;9.388;2023-02-13T13:45:07;100278.47;;;19.00;50.38
34482;BME280;20720;48.886;9.388;2023-02-13T13:47:53;100281.72;;;18.69;52.18
34482;BME280;20720;48.886;9.388;2023-02-13T13:50:26;100285.00;;;19.62;50.16
34482;BME280;20720;48.886;9.388;2023-02-13T13:53:15;100276.81;;;19.12;50.83
34482;BME280;20720;48.886;9.388;2023-02-13T14:03:47;100266.56;;;18.76;51.09
34482;BME280;20720;48.886;9.388;2023-02-13T14:06:15;100268.22;;;18.64;52.07
34482;BME280;20720;48.886;9.388;2023-02-13T14:13:50;100273.97;;;19.33;50.21
34482;BME280;20720;48.886;9.388;2023-02-13T14:19:04;100262.53;;;18.13;52.91
34482;BME280;20720;48.886;9.388;2023-02-13T14:21:30;100261.44;;;18.55;51.88
34482;BME280;20720;48.886;9.388;2023-02-13T14:23:56;100260.41;;;18.49;52.26
34482;BME280;20720;48.886;9.388;2023-02-13T14:26:34;100262.91;;;19.03;50.54
34482;BME280;20720;48.886;9.388;2023-02-13T14:31:36;100269.38;;;20.23;48.56
34482;BME280;20720;48.886;9.388;2023-02-13T14:36:41;100269.66;;;18.79;51.11
34482;BME280;20720;48.886;9.388;2023-02-13T14:39:27;100267.41;;;19.03;50.86
34482;BME280;20720;48.886;9.388;2023-02-13T14:44:47;100271.47;;;19.25;50.17
34482;BME280;20720;48.886;9.388;2023-02-13T14:47:42;100276.84;;;18.92;50.20
34482;BME280;20720;48.886;9.388;2023-02-13T14:50:39;100265.34;;;18.78;50.76
34482;BME280;20720;48.886;9.388;2023-02-13T14:53:16;100269.88;;;19.11;49.63
34482;BME280;20720;48.886;9.388;2023-02-13T14:55:44;100277.44;;;17.33;53.78
34482;BME280;20720;48.886;9.388;2023-02-13T14:58:30;100270.53;;;17.11;54.82
34482;BME280;20720;48.886;9.388;2023-02-13T15:03:56;100261.66;;;18.79;51.68